sensor_id;sensor_type;location;lat;lon;timestamp;temperature;humidity
11136;DHT22;5622;50.840;4.948;2022-09-27T00:00:57;10.80;99.90
11136;DHT22;5622;50.840;4.948;2022-09-27T00:03:25;10.80;99.90
11136;DHT22;5622;50.840;4.948;2022-09-27T00:06:02;10.90;99.90
11136;DHT22;5622;50.840;4.948;2022-09-27T00:08:31;10.80;99.90
11136;DHT22;5622;50.840;4.948;2022-09-27T00:10:59;10.80;99.90
11136;DHT22;5622;50.840;4.948;2022-09-27T00:13:28;10.80;99.90
11136;DHT22;5622;50.840;4.948;2022-09-27T00:15:56;10.80;99.90
11136;DHT22;5622;50.840;4.948;2022-09-27T00:18:23;10.80;99.90
11136;DHT22;5622;50.840;4.948;2022-09-27T00:20:50;10.80;99.90
11136;DHT22;5622;50.840;4.948;2022-09-27T00:23:19;10.70;99.90
11136;DHT22;5622;50.840;4.948;2022-09-27T00:25:54;10.80;99.90
11136;DHT22;5622;50.840;4.948;2022-09-27T00:28:21;10.70;99.90
11136;DHT22;5622;50.840;4.948;2022-09-27T00:30:48;10.70;99.90
11136;DHT22;5622;50.840;4.948;2022-09-27T00:33:16;10.70;99.90
11136;DHT22;5622;50.840;4.948;2022-09-27T00:35:43;10.60;99.90
11136;DHT22;5622;50.840;4.948;2022-09-27T00:38:11;10.70;99.90
11136;DHT22;5622;50.840;4.948;2022-09-27T00:40:40;10.70;99.90
11136;DHT22;5622;50.840;4.948;2022-09-27T00:43:15;10.70;99.90
11136;DHT22;5622;50.840;4.948;2022-09-27T00:45:46;10.70;99.90
11136;DHT22;5622;50.840;4.948;2022-09-27T00:48:16;10.70;99.90
11136;DHT22;5622;50.840;4.948;2022-09-27T00:50:46;10.70;99.90
11136;DHT22;5622;50.840;4.948;2022-09-27T00:53:16;10.70;99.90
11136;DHT22;5622;50.840;4.948;2022-09-27T00:55:48;10.70;99.90
11136;DHT22;5622;50.840;4.948;2022-09-27T00:58:17;10.70;99.90
11136;DHT22;5622;50.840;4.948;2022-09-27T01:00:51;10.70;99.90
11136;DHT22;5622;50.840;4.948;2022-09-27T01:03:25;10.60;99.90
11136;DHT22;5622;50.840;4.948;2022-09-27T01:05:54;10.60;99.90
11136;DHT22;5622;50.840;4.948;2022-09-27T01:08:22;10.60;99.90
11136;DHT22;5622;50.840;4.948;2022-09-27T01:11:02;10.50;99.90
11136;DHT22;5622;50.840;4.948;2022-09-27T01:13:38;10.50;99.90
11136;DHT22;5622;50.840;4.948;2022-09-27T01:16:13;10.50;99.90
11136;DHT22;5622;50.840;4.948;2022-09-27T01:18:53;10.50;99.90
11136;DHT22;5622;50.840;4.948;2022-09-27T01:21:37;10.50;99.90
11136;DHT22;5622;50.840;4.948;2022-09-27T01:24:33;10.60;99.90
11136;DHT22;5622;50.840;4.948;2022-09-27T01:27:46;10.60;99.90
11136;DHT22;5622;50.840;4.948;2022-09-27T01:30:27;10.60;99.90
11136;DHT22;5622;50.840;4.948;2022-09-27T01:33:10;10.50;99.90
11136;DHT22;5622;50.840;4.948;2022-09-27T01:35:46;10.50;99.90
11136;DHT22;5622;50.840;4.948;2022-09-27T01:38:21;10.50;99.90
11136;DHT22;5622;50.840;4.948;2022-09-27T01:40:55;10.50;99.90
11136;DHT22;5622;50.840;4.948;2022-09-27T01:43:29;10.50;99.90
11136;DHT22;5622;50.840;4.948;2022-09-27T01:46:03;10.40;99.90
11136;DHT22;5622;50.840;4.948;2022-09-27T01:48:35;10.50;99.90
11136;DHT22;5622;50.840;4.948;2022-09-27T01:51:07;10.40;99.90
11136;DHT22;5622;50.840;4.948;2022-09-27T01:53:37;10.40;99.90
11136;DHT22;5622;50.840;4.948;2022-09-27T01:56:08;10.50;99.90
11136;DHT22;5622;50.840;4.948;2022-09-27T01:58:41;10.50;99.90
11136;DHT22;5622;50.840;4.948;2022-09-27T02:01:13;10.50;99.90
11136;DHT22;5622;50.840;4.948;2022-09-27T02:03:43;10.40;99.90
11136;DHT22;5622;50.840;4.948;2022-09-27T02:06:18;10.40;99.90
11136;DHT22;5622;50.840;4.948;2022-09-27T02:08:50;10.40;99.90
11136;DHT22;5622;50.840;4.948;2022-09-27T02:11:18;10.40;99.90
11136;DHT22;5622;50.840;4.948;2022-09-27T02:13:51;10.30;99.90
11136;DHT22;5622;50.840;4.948;2022-09-27T02:16:27;10.30;99.90
11136;DHT22;5622;50.840;4.948;2022-09-27T02:19:00;10.40;99.90
11136;DHT22;5622;50.840;4.948;2022-09-27T02:21:37;10.30;99.90
11136;DHT22;5622;50.840;4.948;2022-09-27T02:24:08;10.30;99.90
11136;DHT22;5622;50.840;4.948;2022-09-27T02:26:40;10.30;99.90
11136;DHT22;5622;50.840;4.948;2022-09-27T02:29:10;10.30;99.90
11136;DHT22;5622;50.840;4.948;2022-09-27T02:31:40;10.30;99.90
11136;DHT22;5622;50.840;4.948;2022-09-27T02:34:11;10.30;99.90
11136;DHT22;5622;50.840;4.948;2022-09-27T02:36:40;10.30;99.90
11136;DHT22;5622;50.840;4.948;2022-09-27T02:39:07;10.30;99.90
11136;DHT22;5622;50.840;4.948;2022-09-27T02:41:34;10.30;99.90
11136;DHT22;5622;50.840;4.948;2022-09-27T02:44:03;10.30;99.90
11136;DHT22;5622;50.840;4.948;2022-09-27T02:47:09;10.20;99.90
11136;DHT22;5622;50.840;4.948;2022-09-27T02:49:48;10.20;99.90
11136;DHT22;5622;50.840;4.948;2022-09-27T02:52:25;10.20;99.90
11136;DHT22;5622;50.840;4.948;2022-09-27T02:55:05;10.20;99.90
11136;DHT22;5622;50.840;4.948;2022-09-27T02:57:43;10.20;99.90
11136;DHT22;5622;50.840;4.948;2022-09-27T03:00:16;10.20;99.90
11136;DHT22;5622;50.840;4.948;2022-09-27T03:02:52;10.20;99.90
11136;DHT22;5622;50.840;4.948;2022-09-27T03:05:25;10.20;99.90
11136;DHT22;5622;50.840;4.948;2022-09-27T03:07:54;10.20;99.90
11136;DHT22;5622;50.840;4.948;2022-09-27T03:10:23;10.20;99.90
11136;DHT22;5622;50.840;4.948;2022-09-27T03:12:51;10.30;99.90
11136;DHT22;5622;50.840;4.948;2022-09-27T03:15:19;10.30;99.90
11136;DHT22;5622;50.840;4.948;2022-09-27T03:17:47;10.30;99.90
11136;DHT22;5622;50.840;4.948;2022-09-27T03:20:15;10.30;99.90
11136;DHT22;5622;50.840;4.948;2022-09-27T03:22:42;10.20;99.90
11136;DHT22;5622;50.840;4.948;2022-09-27T03:25:10;10.20;99.90
11136;DHT22;5622;50.840;4.948;2022-09-27T03:27:38;10.20;99.90
11136;DHT22;5622;50.840;4.948;2022-09-27T03:30:05;10.30;99.90
11136;DHT22;5622;50.840;4.948;2022-09-27T03:32:33;10.30;99.90
11136;DHT22;5622;50.840;4.948;2022-09-27T03:35:01;10.30;99.90
11136;DHT22;5622;50.840;4.948;2022-09-27T03:37:28;10.20;99.90
11136;DHT22;5622;50.840;4.948;2022-09-27T03:39:56;10.30;99.90
11136;DHT22;5622;50.840;4.948;2022-09-27T03:42:23;10.30;99.90
11136;DHT22;5622;50.840;4.948;2022-09-27T03:44:50;10.30;99.90
11136;DHT22;5622;50.840;4.948;2022-09-27T03:47:17;10.30;99.90
11136;DHT22;5622;50.840;4.948;2022-09-27T03:49:44;10.30;99.90
11136;DHT22;5622;50.840;4.948;2022-09-27T03:52:13;10.40;99.90
11136;DHT22;5622;50.840;4.948;2022-09-27T03:54:41;10.40;99.90
11136;DHT22;5622;50.840;4.948;2022-09-27T03:57:08;10.40;99.90
11136;DHT22;5622;50.840;4.948;2022-09-27T03:59:35;10.30;99.90
11136;DHT22;5622;50.840;4.948;2022-09-27T04:02:02;10.30;99.90
11136;DHT22;5622;50.840;4.948;2022-09-27T04:04:29;10.30;99.90
11136;DHT22;5622;50.840;4.948;2022-09-27T04:06:57;10.40;99.90
11136;DHT22;5622;50.840;4.948;2022-09-27T04:09:26;10.30;99.90
11136;DHT22;5622;50.840;4.948;2022-09-27T04:11:53;10.30;99.90
11136;DHT22;5622;50.840;4.948;2022-09-27T04:14:20;10.30;99.90
11136;DHT22;5622;50.840;4.948;2022-09-27T04:16:47;10.40;99.90
11136;DHT22;5622;50.840;4.948;2022-09-27T04:19:14;10.40;99.90
11136;DHT22;5622;50.840;4.948;2022-09-27T04:21:42;10.40;99.90
11136;DHT22;5622;50.840;4.948;2022-09-27T04:24:09;10.30;99.90
11136;DHT22;5622;50.840;4.948;2022-09-27T04:26:38;10.30;99.90
11136;DHT22;5622;50.840;4.948;2022-09-27T04:29:05;10.30;99.90
11136;DHT22;5622;50.840;4.948;2022-09-27T04:31:34;10.30;99.90
11136;DHT22;5622;50.840;4.948;2022-09-27T04:34:03;10.30;99.90
11136;DHT22;5622;50.840;4.948;2022-09-27T04:36:30;10.30;99.90
11136;DHT22;5622;50.840;4.948;2022-09-27T04:38:58;10.40;99.90
11136;DHT22;5622;50.840;4.948;2022-09-27T04:41:26;10.30;99.90
11136;DHT22;5622;50.840;4.948;2022-09-27T04:43:56;10.30;99.90
11136;DHT22;5622;50.840;4.948;2022-09-27T04:46:26;10.40;99.90
11136;DHT22;5622;50.840;4.948;2022-09-27T04:48:56;10.30;99.90
11136;DHT22;5622;50.840;4.948;2022-09-27T04:51:23;10.30;99.90
11136;DHT22;5622;50.840;4.948;2022-09-27T04:53:50;10.30;99.90
11136;DHT22;5622;50.840;4.948;2022-09-27T04:56:17;10.30;99.90
11136;DHT22;5622;50.840;4.948;2022-09-27T04:58:44;10.20;99.90
11136;DHT22;5622;50.840;4.948;2022-09-27T05:01:13;10.20;99.90
11136;DHT22;5622;50.840;4.948;2022-09-27T05:03:40;10.10;99.90
11136;DHT22;5622;50.840;4.948;2022-09-27T05:06:07;10.20;99.90
11136;DHT22;5622;50.840;4.948;2022-09-27T05:08:34;10.20;99.90
11136;DHT22;5622;50.840;4.948;2022-09-27T05:11:01;10.20;99.90
11136;DHT22;5622;50.840;4.948;2022-09-27T05:13:28;10.20;99.90
11136;DHT22;5622;50.840;4.948;2022-09-27T05:16:01;10.00;99.90
11136;DHT22;5622;50.840;4.948;2022-09-27T05:18:30;10.10;99.90
11136;DHT22;5622;50.840;4.948;2022-09-27T05:20:58;10.10;99.90
11136;DHT22;5622;50.840;4.948;2022-09-27T05:23:25;10.10;99.90
11136;DHT22;5622;50.840;4.948;2022-09-27T05:25:52;10.10;99.90
11136;DHT22;5622;50.840;4.948;2022-09-27T05:28:22;10.10;99.90
11136;DHT22;5622;50.840;4.948;2022-09-27T05:30:49;10.70;99.90
11136;DHT22;5622;50.840;4.948;2022-09-27T05:33:16;10.10;99.90
11136;DHT22;5622;50.840;4.948;2022-09-27T05:35:50;10.10;99.90
11136;DHT22;5622;50.840;4.948;2022-09-27T05:38:17;10.10;99.90
11136;DHT22;5622;50.840;4.948;2022-09-27T05:40:44;10.10;99.90
11136;DHT22;5622;50.840;4.948;2022-09-27T05:43:13;10.10;99.90
11136;DHT22;5622;50.840;4.948;2022-09-27T05:45:40;10.10;99.90
11136;DHT22;5622;50.840;4.948;2022-09-27T05:48:09;10.10;99.90
11136;DHT22;5622;50.840;4.948;2022-09-27T05:50:37;10.20;99.90
11136;DHT22;5622;50.840;4.948;2022-09-27T05:53:06;10.20;99.90
11136;DHT22;5622;50.840;4.948;2022-09-27T05:55:33;10.20;99.90
11136;DHT22;5622;50.840;4.948;2022-09-27T05:58:01;10.20;99.90
11136;DHT22;5622;50.840;4.948;2022-09-27T06:00:29;10.20;99.90
11136;DHT22;5622;50.840;4.948;2022-09-27T06:02:58;10.20;99.90
11136;DHT22;5622;50.840;4.948;2022-09-27T06:05:28;10.20;99.90
11136;DHT22;5622;50.840;4.948;2022-09-27T06:07:58;10.30;99.90
11136;DHT22;5622;50.840;4.948;2022-09-27T06:10:28;10.30;99.90
11136;DHT22;5622;50.840;4.948;2022-09-27T06:12:59;10.20;99.90
11136;DHT22;5622;50.840;4.948;2022-09-27T06:15:27;10.20;99.90
11136;DHT22;5622;50.840;4.948;2022-09-27T06:17:54;10.30;99.90
11136;DHT22;5622;50.840;4.948;2022-09-27T06:20:21;10.20;99.90
11136;DHT22;5622;50.840;4.948;2022-09-27T06:22:48;10.20;99.90
11136;DHT22;5622;50.840;4.948;2022-09-27T06:25:15;10.20;99.90
11136;DHT22;5622;50.840;4.948;2022-09-27T06:27:44;10.20;99.90
11136;DHT22;5622;50.840;4.948;2022-09-27T06:30:12;10.30;99.90
11136;DHT22;5622;50.840;4.948;2022-09-27T06:32:39;10.20;99.90
11136;DHT22;5622;50.840;4.948;2022-09-27T06:35:06;10.30;99.90
11136;DHT22;5622;50.840;4.948;2022-09-27T06:37:34;10.30;99.90
11136;DHT22;5622;50.840;4.948;2022-09-27T06:40:01;10.30;99.90
11136;DHT22;5622;50.840;4.948;2022-09-27T06:42:28;10.30;99.90
11136;DHT22;5622;50.840;4.948;2022-09-27T06:44:57;10.30;99.90
11136;DHT22;5622;50.840;4.948;2022-09-27T06:47:28;10.20;99.90
11136;DHT22;5622;50.840;4.948;2022-09-27T06:49:55;10.30;99.90
11136;DHT22;5622;50.840;4.948;2022-09-27T06:52:22;10.20;99.90
11136;DHT22;5622;50.840;4.948;2022-09-27T06:54:50;10.30;99.90
11136;DHT22;5622;50.840;4.948;2022-09-27T06:57:17;10.30;99.90
11136;DHT22;5622;50.840;4.948;2022-09-27T07:00:08;10.30;99.90
11136;DHT22;5622;50.840;4.948;2022-09-27T07:02:58;10.30;99.90
11136;DHT22;5622;50.840;4.948;2022-09-27T07:05:27;10.40;99.90
11136;DHT22;5622;50.840;4.948;2022-09-27T07:07:54;10.40;99.90
11136;DHT22;5622;50.840;4.948;2022-09-27T07:10:26;10.40;99.90
11136;DHT22;5622;50.840;4.948;2022-09-27T07:12:54;10.40;99.90
11136;DHT22;5622;50.840;4.948;2022-09-27T07:15:24;10.40;99.90
11136;DHT22;5622;50.840;4.948;2022-09-27T07:17:55;10.40;99.90
11136;DHT22;5622;50.840;4.948;2022-09-27T07:20:23;10.40;99.90
11136;DHT22;5622;50.840;4.948;2022-09-27T07:22:51;10.40;99.90
11136;DHT22;5622;50.840;4.948;2022-09-27T07:25:18;10.40;99.90
11136;DHT22;5622;50.840;4.948;2022-09-27T07:27:45;10.40;99.90
11136;DHT22;5622;50.840;4.948;2022-09-27T07:30:12;10.40;99.90
11136;DHT22;5622;50.840;4.948;2022-09-27T07:32:42;10.50;99.90
11136;DHT22;5622;50.840;4.948;2022-09-27T07:35:10;10.40;99.90
11136;DHT22;5622;50.840;4.948;2022-09-27T07:37:40;10.40;99.90
11136;DHT22;5622;50.840;4.948;2022-09-27T07:40:08;10.40;99.90
11136;DHT22;5622;50.840;4.948;2022-09-27T07:42:36;10.30;99.90
11136;DHT22;5622;50.840;4.948;2022-09-27T07:45:05;10.30;99.90
11136;DHT22;5622;50.840;4.948;2022-09-27T07:47:32;10.30;99.90
11136;DHT22;5622;50.840;4.948;2022-09-27T07:50:02;10.40;99.90
11136;DHT22;5622;50.840;4.948;2022-09-27T07:52:29;10.40;99.90
11136;DHT22;5622;50.840;4.948;2022-09-27T07:54:56;10.40;99.90
11136;DHT22;5622;50.840;4.948;2022-09-27T07:57:23;10.40;99.90
11136;DHT22;5622;50.840;4.948;2022-09-27T07:59:51;10.50;99.90
11136;DHT22;5622;50.840;4.948;2022-09-27T08:02:21;10.50;99.90
11136;DHT22;5622;50.840;4.948;2022-09-27T08:04:49;10.50;99.90
11136;DHT22;5622;50.840;4.948;2022-09-27T08:07:17;10.50;99.90
11136;DHT22;5622;50.840;4.948;2022-09-27T08:09:47;10.50;99.90
11136;DHT22;5622;50.840;4.948;2022-09-27T08:12:15;10.60;99.90
11136;DHT22;5622;50.840;4.948;2022-09-27T08:14:42;10.60;99.90
11136;DHT22;5622;50.840;4.948;2022-09-27T08:17:09;10.70;99.90
11136;DHT22;5622;50.840;4.948;2022-09-27T08:19:37;10.70;99.90
11136;DHT22;5622;50.840;4.948;2022-09-27T08:22:04;10.70;99.90
11136;DHT22;5622;50.840;4.948;2022-09-27T08:24:33;10.70;99.90
11136;DHT22;5622;50.840;4.948;2022-09-27T08:27:01;10.80;99.90
11136;DHT22;5622;50.840;4.948;2022-09-27T08:29:29;10.80;99.90
11136;DHT22;5622;50.840;4.948;2022-09-27T08:31:56;10.80;99.90
11136;DHT22;5622;50.840;4.948;2022-09-27T08:34:23;10.80;99.90
11136;DHT22;5622;50.840;4.948;2022-09-27T08:36:50;10.90;99.90
11136;DHT22;5622;50.840;4.948;2022-09-27T08:39:20;11.10;99.90
11136;DHT22;5622;50.840;4.948;2022-09-27T08:41:54;11.10;99.90
11136;DHT22;5622;50.840;4.948;2022-09-27T08:44:28;11.20;99.90
11136;DHT22;5622;50.840;4.948;2022-09-27T08:47:08;11.20;99.90
11136;DHT22;5622;50.840;4.948;2022-09-27T08:49:40;11.20;99.90
11136;DHT22;5622;50.840;4.948;2022-09-27T08:52:15;11.20;99.90
11136;DHT22;5622;50.840;4.948;2022-09-27T08:54:44;11.20;99.90
11136;DHT22;5622;50.840;4.948;2022-09-27T08:57:14;11.20;99.90
11136;DHT22;5622;50.840;4.948;2022-09-27T08:59:46;11.20;99.90
11136;DHT22;5622;50.840;4.948;2022-09-27T09:02:18;11.10;99.90
11136;DHT22;5622;50.840;4.948;2022-09-27T09:04:47;11.10;99.90
11136;DHT22;5622;50.840;4.948;2022-09-27T09:07:26;11.10;99.90
11136;DHT22;5622;50.840;4.948;2022-09-27T09:10:03;11.10;99.90
11136;DHT22;5622;50.840;4.948;2022-09-27T09:12:40;11.10;99.90
11136;DHT22;5622;50.840;4.948;2022-09-27T09:15:33;11.20;99.90
11136;DHT22;5622;50.840;4.948;2022-09-27T09:18:36;11.20;99.90
11136;DHT22;5622;50.840;4.948;2022-09-27T09:21:10;11.20;99.90
11136;DHT22;5622;50.840;4.948;2022-09-27T09:23:52;11.10;99.90
11136;DHT22;5622;50.840;4.948;2022-09-27T09:26:28;11.10;99.90
11136;DHT22;5622;50.840;4.948;2022-09-27T09:29:12;11.00;99.90
11136;DHT22;5622;50.840;4.948;2022-09-27T09:31:49;11.10;99.90
11136;DHT22;5622;50.840;4.948;2022-09-27T09:34:22;11.00;99.90
11136;DHT22;5622;50.840;4.948;2022-09-27T09:36:54;11.00;99.90
11136;DHT22;5622;50.840;4.948;2022-09-27T09:39:26;11.00;99.90
11136;DHT22;5622;50.840;4.948;2022-09-27T09:42:04;11.00;99.90
11136;DHT22;5622;50.840;4.948;2022-09-27T09:44:43;10.90;99.90
11136;DHT22;5622;50.840;4.948;2022-09-27T09:47:23;11.00;99.90
11136;DHT22;5622;50.840;4.948;2022-09-27T09:49:56;11.00;99.90
11136;DHT22;5622;50.840;4.948;2022-09-27T09:52:28;11.00;99.90
11136;DHT22;5622;50.840;4.948;2022-09-27T09:55:04;11.10;99.90
11136;DHT22;5622;50.840;4.948;2022-09-27T09:57:37;11.00;99.90
11136;DHT22;5622;50.840;4.948;2022-09-27T10:00:13;11.00;99.90
11136;DHT22;5622;50.840;4.948;2022-09-27T10:02:42;11.10;99.90
11136;DHT22;5622;50.840;4.948;2022-09-27T10:05:13;11.00;99.90
11136;DHT22;5622;50.840;4.948;2022-09-27T10:07:40;11.00;99.90
11136;DHT22;5622;50.840;4.948;2022-09-27T10:10:13;11.10;99.90
11136;DHT22;5622;50.840;4.948;2022-09-27T10:12:41;11.10;99.90
11136;DHT22;5622;50.840;4.948;2022-09-27T10:15:13;11.00;99.90
11136;DHT22;5622;50.840;4.948;2022-09-27T10:17:47;11.00;99.90
11136;DHT22;5622;50.840;4.948;2022-09-27T10:20:24;10.90;99.90
11136;DHT22;5622;50.840;4.948;2022-09-27T10:22:55;10.90;99.90
11136;DHT22;5622;50.840;4.948;2022-09-27T10:25:44;10.90;99.90
11136;DHT22;5622;50.840;4.948;2022-09-27T10:28:26;10.90;99.90
11136;DHT22;5622;50.840;4.948;2022-09-27T10:31:00;10.80;99.90
11136;DHT22;5622;50.840;4.948;2022-09-27T10:33:29;10.80;99.90
11136;DHT22;5622;50.840;4.948;2022-09-27T10:35:58;10.90;99.90
11136;DHT22;5622;50.840;4.948;2022-09-27T10:38:28;10.90;99.90
11136;DHT22;5622;50.840;4.948;2022-09-27T10:40:57;10.90;99.90
11136;DHT22;5622;50.840;4.948;2022-09-27T10:43:29;10.90;99.90
11136;DHT22;5622;50.840;4.948;2022-09-27T10:46:05;10.90;99.90
11136;DHT22;5622;50.840;4.948;2022-09-27T10:48:36;10.90;99.90
11136;DHT22;5622;50.840;4.948;2022-09-27T10:51:05;11.00;99.90
11136;DHT22;5622;50.840;4.948;2022-09-27T10:53:34;11.10;99.90
11136;DHT22;5622;50.840;4.948;2022-09-27T10:56:02;11.00;99.90
11136;DHT22;5622;50.840;4.948;2022-09-27T10:58:31;11.10;99.90
11136;DHT22;5622;50.840;4.948;2022-09-27T11:01:04;11.20;99.90
11136;DHT22;5622;50.840;4.948;2022-09-27T11:03:35;11.30;99.90
11136;DHT22;5622;50.840;4.948;2022-09-27T11:06:18;11.30;99.90
11136;DHT22;5622;50.840;4.948;2022-09-27T11:08:46;11.40;99.90
11136;DHT22;5622;50.840;4.948;2022-09-27T11:11:17;11.50;99.90
11136;DHT22;5622;50.840;4.948;2022-09-27T11:13:59;11.60;99.90
11136;DHT22;5622;50.840;4.948;2022-09-27T11:16:41;11.60;99.90
11136;DHT22;5622;50.840;4.948;2022-09-27T11:19:22;11.70;99.90
11136;DHT22;5622;50.840;4.948;2022-09-27T11:21:58;11.70;99.90
11136;DHT22;5622;50.840;4.948;2022-09-27T11:24:38;11.80;99.90
11136;DHT22;5622;50.840;4.948;2022-09-27T11:27:16;11.80;99.90
11136;DHT22;5622;50.840;4.948;2022-09-27T11:29:58;11.90;99.90
11136;DHT22;5622;50.840;4.948;2022-09-27T11:32:38;11.90;99.90
11136;DHT22;5622;50.840;4.948;2022-09-27T11:35:21;12.00;99.90
11136;DHT22;5622;50.840;4.948;2022-09-27T11:37:57;12.10;99.90
11136;DHT22;5622;50.840;4.948;2022-09-27T11:40:32;12.10;99.90
11136;DHT22;5622;50.840;4.948;2022-09-27T11:43:20;12.10;99.90
11136;DHT22;5622;50.840;4.948;2022-09-27T11:45:55;12.20;99.90
11136;DHT22;5622;50.840;4.948;2022-09-27T11:48:41;12.20;99.90
11136;DHT22;5622;50.840;4.948;2022-09-27T11:51:21;12.30;99.90
11136;DHT22;5622;50.840;4.948;2022-09-27T11:54:12;12.30;99.90
11136;DHT22;5622;50.840;4.948;2022-09-27T11:56:48;12.40;99.90
11136;DHT22;5622;50.840;4.948;2022-09-27T11:59:51;12.40;99.90
11136;DHT22;5622;50.840;4.948;2022-09-27T12:02:38;12.50;99.90
11136;DHT22;5622;50.840;4.948;2022-09-27T12:05:19;12.50;99.90
11136;DHT22;5622;50.840;4.948;2022-09-27T12:07:57;12.60;99.90
11136;DHT22;5622;50.840;4.948;2022-09-27T12:10:28;12.60;99.90
11136;DHT22;5622;50.840;4.948;2022-09-27T12:12:56;12.60;99.90
11136;DHT22;5622;50.840;4.948;2022-09-27T12:15:26;12.50;99.90
11136;DHT22;5622;50.840;4.948;2022-09-27T12:18:11;12.20;99.90
11136;DHT22;5622;50.840;4.948;2022-09-27T12:20:43;11.60;99.90
11136;DHT22;5622;50.840;4.948;2022-09-27T12:23:15;11.30;99.90
11136;DHT22;5622;50.840;4.948;2022-09-27T12:25:44;11.10;99.90
11136;DHT22;5622;50.840;4.948;2022-09-27T12:28:20;11.00;99.90
11136;DHT22;5622;50.840;4.948;2022-09-27T12:30:56;11.00;99.90
11136;DHT22;5622;50.840;4.948;2022-09-27T12:33:28;10.90;99.90
11136;DHT22;5622;50.840;4.948;2022-09-27T12:36:04;10.90;99.90
11136;DHT22;5622;50.840;4.948;2022-09-27T12:38:39;11.00;99.90
11136;DHT22;5622;50.840;4.948;2022-09-27T12:41:12;11.10;99.90
11136;DHT22;5622;50.840;4.948;2022-09-27T12:43:44;11.20;99.90
11136;DHT22;5622;50.840;4.948;2022-09-27T12:46:18;11.30;99.90
11136;DHT22;5622;50.840;4.948;2022-09-27T12:48:53;11.30;99.90
11136;DHT22;5622;50.840;4.948;2022-09-27T12:51:24;11.40;99.90
11136;DHT22;5622;50.840;4.948;2022-09-27T12:54:20;11.50;99.90
11136;DHT22;5622;50.840;4.948;2022-09-27T12:56:55;11.60;99.90
11136;DHT22;5622;50.840;4.948;2022-09-27T12:59:44;11.70;99.90
11136;DHT22;5622;50.840;4.948;2022-09-27T13:05:36;11.80;99.90
11136;DHT22;5622;50.840;4.948;2022-09-27T13:08:27;11.90;99.90
11136;DHT22;5622;50.840;4.948;2022-09-27T13:11:06;12.00;99.90
11136;DHT22;5622;50.840;4.948;2022-09-27T13:13:35;12.10;99.90
11136;DHT22;5622;50.840;4.948;2022-09-27T13:16:04;12.10;99.90
11136;DHT22;5622;50.840;4.948;2022-09-27T13:18:54;12.30;99.90
11136;DHT22;5622;50.840;4.948;2022-09-27T13:21:57;12.40;99.90
11136;DHT22;5622;50.840;4.948;2022-09-27T13:24:47;12.40;99.90
11136;DHT22;5622;50.840;4.948;2022-09-27T13:27:40;12.60;99.90
11136;DHT22;5622;50.840;4.948;2022-09-27T13:33:40;12.50;99.90
11136;DHT22;5622;50.840;4.948;2022-09-27T13:36:33;12.50;99.90
11136;DHT22;5622;50.840;4.948;2022-09-27T13:42:02;12.50;99.90
11136;DHT22;5622;50.840;4.948;2022-09-27T13:44:41;12.50;99.90
11136;DHT22;5622;50.840;4.948;2022-09-27T13:47:19;12.50;99.90
11136;DHT22;5622;50.840;4.948;2022-09-27T13:49:54;12.50;99.90
11136;DHT22;5622;50.840;4.948;2022-09-27T13:52:27;12.40;99.90
11136;DHT22;5622;50.840;4.948;2022-09-27T13:54:59;12.30;99.90
11136;DHT22;5622;50.840;4.948;2022-09-27T13:57:42;12.20;99.90
11136;DHT22;5622;50.840;4.948;2022-09-27T14:00:13;12.20;99.90
11136;DHT22;5622;50.840;4.948;2022-09-27T14:02:51;12.10;99.90
11136;DHT22;5622;50.840;4.948;2022-09-27T14:05:25;12.00;99.90
11136;DHT22;5622;50.840;4.948;2022-09-27T14:07:59;11.90;99.90
11136;DHT22;5622;50.840;4.948;2022-09-27T14:10:28;11.90;99.90
11136;DHT22;5622;50.840;4.948;2022-09-27T14:13:00;11.90;99.90
11136;DHT22;5622;50.840;4.948;2022-09-27T14:15:31;11.90;99.90
11136;DHT22;5622;50.840;4.948;2022-09-27T14:17:59;11.90;99.90
11136;DHT22;5622;50.840;4.948;2022-09-27T14:20:31;11.90;99.90
11136;DHT22;5622;50.840;4.948;2022-09-27T14:22:58;12.00;99.90
11136;DHT22;5622;50.840;4.948;2022-09-27T14:25:26;12.00;99.90
11136;DHT22;5622;50.840;4.948;2022-09-27T14:27:53;12.00;99.90
11136;DHT22;5622;50.840;4.948;2022-09-27T14:30:26;12.10;99.90
11136;DHT22;5622;50.840;4.948;2022-09-27T14:32:55;12.10;99.90
11136;DHT22;5622;50.840;4.948;2022-09-27T14:35:27;12.20;99.90
11136;DHT22;5622;50.840;4.948;2022-09-27T14:38:13;12.10;99.90
11136;DHT22;5622;50.840;4.948;2022-09-27T14:40:53;12.30;99.90
11136;DHT22;5622;50.840;4.948;2022-09-27T14:43:21;12.30;99.90
11136;DHT22;5622;50.840;4.948;2022-09-27T14:45:51;12.30;99.90
11136;DHT22;5622;50.840;4.948;2022-09-27T14:48:21;12.30;99.90
11136;DHT22;5622;50.840;4.948;2022-09-27T14:50:56;12.30;99.90
11136;DHT22;5622;50.840;4.948;2022-09-27T14:53:27;12.40;99.90
11136;DHT22;5622;50.840;4.948;2022-09-27T14:55:55;12.40;99.90
11136;DHT22;5622;50.840;4.948;2022-09-27T14:58:24;12.40;99.90
11136;DHT22;5622;50.840;4.948;2022-09-27T15:00:55;12.50;99.90
11136;DHT22;5622;50.840;4.948;2022-09-27T15:03:27;12.50;99.90
11136;DHT22;5622;50.840;4.948;2022-09-27T15:05:56;12.50;99.90
11136;DHT22;5622;50.840;4.948;2022-09-27T15:08:26;12.50;99.90
11136;DHT22;5622;50.840;4.948;2022-09-27T15:10:55;12.50;99.90
11136;DHT22;5622;50.840;4.948;2022-09-27T15:13:24;12.50;99.90
11136;DHT22;5622;50.840;4.948;2022-09-27T15:15:54;12.50;99.90
11136;DHT22;5622;50.840;4.948;2022-09-27T15:18:39;12.50;99.90
11136;DHT22;5622;50.840;4.948;2022-09-27T15:21:08;12.50;99.90
11136;DHT22;5622;50.840;4.948;2022-09-27T15:23:37;12.50;99.90
11136;DHT22;5622;50.840;4.948;2022-09-27T15:26:10;12.50;99.90
11136;DHT22;5622;50.840;4.948;2022-09-27T15:28:42;12.50;99.90
11136;DHT22;5622;50.840;4.948;2022-09-27T15:31:11;12.40;99.90
11136;DHT22;5622;50.840;4.948;2022-09-27T15:33:39;12.50;99.90
11136;DHT22;5622;50.840;4.948;2022-09-27T15:36:09;12.40;99.90
11136;DHT22;5622;50.840;4.948;2022-09-27T15:38:38;12.30;99.90
11136;DHT22;5622;50.840;4.948;2022-09-27T15:41:12;12.30;99.90
11136;DHT22;5622;50.840;4.948;2022-09-27T15:43:44;12.20;99.90
11136;DHT22;5622;50.840;4.948;2022-09-27T15:46:33;12.20;99.90
11136;DHT22;5622;50.840;4.948;2022-09-27T15:49:29;12.10;99.90
11136;DHT22;5622;50.840;4.948;2022-09-27T15:51:59;12.00;99.90
11136;DHT22;5622;50.840;4.948;2022-09-27T15:54:27;12.00;99.90
11136;DHT22;5622;50.840;4.948;2022-09-27T15:57:00;12.00;99.90
11136;DHT22;5622;50.840;4.948;2022-09-27T15:59:31;12.00;99.90
11136;DHT22;5622;50.840;4.948;2022-09-27T16:02:03;12.00;99.90
11136;DHT22;5622;50.840;4.948;2022-09-27T16:04:32;12.00;99.90
11136;DHT22;5622;50.840;4.948;2022-09-27T16:07:00;12.00;99.90
11136;DHT22;5622;50.840;4.948;2022-09-27T16:09:28;12.00;99.90
11136;DHT22;5622;50.840;4.948;2022-09-27T16:11:55;12.00;99.90
11136;DHT22;5622;50.840;4.948;2022-09-27T16:14:22;12.00;99.90
11136;DHT22;5622;50.840;4.948;2022-09-27T16:16:51;12.10;99.90
11136;DHT22;5622;50.840;4.948;2022-09-27T16:19:21;12.10;99.90
11136;DHT22;5622;50.840;4.948;2022-09-27T16:21:48;12.10;99.90
11136;DHT22;5622;50.840;4.948;2022-09-27T16:24:15;12.10;99.90
11136;DHT22;5622;50.840;4.948;2022-09-27T16:26:43;12.10;99.90